Time;durP1;ratioP1;P1;durP2;ratioP2;P2;SDS_P1;SDS_P2;PMS_P1;PMS_P2;Temp;Humidity;BMP_temperature;BMP_pressure;BME280_temperature;BME280_humidity;BME280_pressure;Samples;Min_cycle;Max_cycle;Signal;HPM_P1;HPM_P2
2023/10/04 00:00:53;;;;;;;10.95;2.38;;;12.50;99.90;;;;;;5052316;28;20044;-78
2023/10/04 00:03:19;;;;;;;13.23;2.08;;;12.50;99.90;;;;;;5052524;28;20040;-78
2023/10/04 00:05:45;;;;;;;8.75;1.90;;;12.50;99.90;;;;;;5052177;28;20040;-78
2023/10/04 00:08:10;;;;;;;9.25;1.92;;;12.40;99.90;;;;;;5051987;28;20413;-78
2023/10/04 00:10:36;;;;;;;11.77;2.33;;;12.40;99.90;;;;;;5035312;28;20048;-78
2023/10/04 00:13:01;;;;;;;14.10;1.90;;;12.40;99.90;;;;;;5052132;28;20218;-78
2023/10/04 00:15:29;;;;;;;11.15;1.95;;;12.40;99.90;;;;;;5035513;28;20401;-78
2023/10/04 00:17:55;;;;;;;14.30;2.55;;;12.30;99.90;;;;;;5035299;28;20044;-78
2023/10/04 00:20:21;;;;;;;12.95;2.55;;;12.40;99.90;;;;;;5051007;28;20349;-78
2023/10/04 00:22:48;;;;;;;13.55;1.95;;;12.30;99.90;;;;;;5052106;28;20439;-77
2023/10/04 00:25:21;;;;;;;10.85;2.40;;;12.30;99.90;;;;;;5051725;28;20041;-78
2023/10/04 00:27:48;;;;;;;;;;;12.30;99.90;;;;;;5052346;28;20068;-78
2023/10/04 00:30:14;;;;;;;12.68;1.90;;;12.30;99.90;;;;;;5051738;28;20001;-78
2023/10/04 00:32:40;;;;;;;10.95;2.13;;;12.30;99.90;;;;;;5052587;28;20415;-78
2023/10/04 00:35:11;;;;;;;10.20;2.17;;;12.30;99.90;;;;;;5051754;28;20045;-78
2023/10/04 00:37:43;;;;;;;7.00;1.80;;;12.30;99.90;;;;;;5051344;28;20104;-78
2023/10/04 00:40:18;;;;;;;9.35;2.10;;;12.20;99.90;;;;;;5051593;28;20378;-78
2023/10/04 00:42:47;;;;;;;10.05;2.15;;;12.30;99.90;;;;;;5051741;28;20112;-78
2023/10/04 00:45:13;;;;;;;9.95;2.25;;;12.20;99.90;;;;;;5036400;28;20128;-79
2023/10/04 00:47:47;;;;;;;12.13;2.15;;;12.20;99.90;;;;;;5053310;28;20072;-79
2023/10/04 00:50:17;;;;;;;11.15;1.95;;;12.20;99.90;;;;;;5051241;28;20072;-78
2023/10/04 00:52:49;;;;;;;12.18;2.75;;;12.20;99.90;;;;;;5051413;28;20572;-78
2023/10/04 00:55:21;;;;;;;6.90;2.08;;;12.20;99.90;;;;;;5051197;28;20043;-78
2023/10/04 00:57:51;;;;;;;11.00;1.90;;;12.20;99.90;;;;;;5051103;28;20574;-78
2023/10/04 01:00:17;;;;;;;9.25;2.22;;;12.10;99.90;;;;;;5034413;28;20408;-78
2023/10/04 01:02:44;;;;;;;7.90;1.85;;;12.10;99.90;;;;;;5034544;28;20049;-78
2023/10/04 01:05:11;;;;;;;11.40;2.05;;;12.10;99.90;;;;;;5049515;28;20043;-78
2023/10/04 01:07:39;;;;;;;10.73;2.00;;;12.10;99.90;;;;;;5050030;28;20136;-78
2023/10/04 01:10:06;;;;;;;8.88;2.15;;;12.10;99.90;;;;;;5034130;28;20041;-78
2023/10/04 01:12:32;;;;;;;9.02;1.70;;;12.10;99.90;;;;;;5049902;28;20427;-78
2023/10/04 01:15:19;;;;;;;6.25;1.85;;;12.10;99.90;;;;;;5032929;28;20103;-78
2023/10/04 01:17:43;;;;;;;11.00;2.05;;;12.10;99.90;;;;;;5050814;28;20045;-78
2023/10/04 01:20:13;;;;;;;11.40;2.20;;;12.00;99.90;;;;;;5050949;28;20083;-78
2023/10/04 01:22:38;;;;;;;13.45;2.45;;;12.00;99.90;;;;;;5051112;28;20060;-78
2023/10/04 01:25:04;;;;;;;13.05;1.83;;;12.00;99.90;;;;;;5051480;28;20040;-78
2023/10/04 01:27:31;;;;;;;13.60;2.42;;;12.00;99.90;;;;;;5051039;28;20037;-78
2023/10/04 01:29:56;;;;;;;8.43;2.05;;;12.00;99.90;;;;;;5050656;28;20044;-78
2023/10/04 01:32:23;;;;;;;11.75;2.03;;;12.00;99.90;;;;;;5050893;28;20452;-78
2023/10/04 01:34:48;;;;;;;12.52;2.10;;;12.00;99.90;;;;;;5050659;28;20048;-78
2023/10/04 01:37:14;;;;;;;11.48;2.15;;;12.00;99.90;;;;;;5050320;28;20044;-78
2023/10/04 01:39:42;;;;;;;10.55;1.92;;;12.00;99.90;;;;;;5050219;28;20032;-78
2023/10/04 01:42:08;;;;;;;10.57;2.10;;;12.00;99.90;;;;;;5050428;28;20044;-77
2023/10/04 01:44:34;;;;;;;12.57;2.15;;;12.00;99.90;;;;;;5050519;28;20041;-78
2023/10/04 01:47:02;;;;;;;13.18;2.13;;;12.00;99.90;;;;;;5050383;28;20036;-78
2023/10/04 01:49:27;;;;;;;7.72;1.85;;;12.00;99.90;;;;;;5050620;28;20426;-78
2023/10/04 01:51:53;;;;;;;10.75;2.03;;;12.00;99.90;;;;;;5050761;28;20045;-79
2023/10/04 01:54:18;;;;;;;11.18;1.95;;;12.00;99.90;;;;;;5050948;28;20120;-79
2023/10/04 01:56:44;;;;;;;14.27;2.22;;;12.00;99.90;;;;;;5051359;28;20445;-79
2023/10/04 01:59:13;;;;;;;9.82;1.77;;;12.00;99.90;;;;;;5050883;28;20029;-78
2023/10/04 02:01:40;;;;;;;9.95;2.10;;;12.00;99.90;;;;;;5050385;28;20408;-78
2023/10/04 02:04:06;;;;;;;8.73;1.80;;;12.00;99.90;;;;;;5034353;28;20040;-78
2023/10/04 02:06:33;;;;;;;9.07;1.60;;;12.00;99.90;;;;;;5050310;28;20049;-78
2023/10/04 02:09:00;;;;;;;13.65;2.67;;;11.90;99.90;;;;;;5049952;28;20047;-78
2023/10/04 02:11:26;;;;;;;10.80;2.05;;;11.90;99.90;;;;;;5049963;28;20121;-78
2023/10/04 02:13:52;;;;;;;7.47;2.10;;;11.90;99.90;;;;;;5033715;28;20232;-78
2023/10/04 02:16:21;;;;;;;9.60;2.08;;;11.90;99.90;;;;;;5050181;28;20140;-78
2023/10/04 02:18:48;;;;;;;8.25;1.88;;;11.80;99.90;;;;;;5049976;28;20040;-78
2023/10/04 02:21:15;;;;;;;12.90;2.53;;;11.80;99.90;;;;;;5049999;28;20311;-78
2023/10/04 02:23:42;;;;;;;10.10;2.78;;;11.80;99.90;;;;;;5049944;28;20083;-78
2023/10/04 02:26:08;;;;;;;10.57;2.22;;;11.80;99.90;;;;;;5049968;28;20103;-78
2023/10/04 02:28:34;;;;;;;9.20;2.00;;;11.80;99.90;;;;;;5049699;28;20452;-78
2023/10/04 02:31:02;;;;;;;10.55;1.60;;;11.70;99.90;;;;;;5050076;28;20045;-78
2023/10/04 02:33:32;;;;;;;9.05;1.88;;;11.80;99.90;;;;;;5050032;28;20041;-78
2023/10/04 02:36:00;;;;;;;13.27;2.30;;;11.80;99.90;;;;;;5049627;28;20091;-78
2023/10/04 02:38:26;;;;;;;10.00;1.70;;;11.70;99.90;;;;;;5049263;28;20075;-78
2023/10/04 02:40:53;;;;;;;10.82;2.25;;;11.70;99.90;;;;;;5049735;28;20224;-78
2023/10/04 02:43:26;;;;;;;10.35;2.63;;;11.70;99.90;;;;;;5052372;28;20049;-78
2023/10/04 02:45:52;;;;;;;7.87;2.03;;;11.70;99.90;;;;;;5053829;28;20484;-78
2023/10/04 02:48:19;;;;;;;9.20;2.80;;;11.70;99.90;;;;;;5054341;28;20048;-78
2023/10/04 02:50:45;;;;;;;11.70;2.08;;;11.70;99.90;;;;;;5054067;28;20037;-78
2023/10/04 02:53:17;;;;;;;8.20;2.08;;;11.70;99.90;;;;;;5053527;28;20044;-78
2023/10/04 02:55:46;;;;;;;12.73;2.83;;;11.70;99.90;;;;;;5037313;28;20052;-78
2023/10/04 02:58:13;;;;;;;10.00;2.50;;;11.70;99.90;;;;;;5036687;28;20075;-78
2023/10/04 03:00:44;;;;;;;7.05;2.00;;;11.70;99.90;;;;;;5053569;28;20057;-78
2023/10/04 03:03:12;;;;;;;8.80;1.90;;;11.70;99.90;;;;;;5053921;28;20116;-78
2023/10/04 03:05:40;;;;;;;9.73;2.30;;;11.70;99.90;;;;;;5053812;28;20424;-78
2023/10/04 03:08:07;;;;;;;8.80;1.88;;;11.70;99.90;;;;;;5053129;28;20095;-78
2023/10/04 03:10:40;;;;;;;8.18;1.80;;;11.70;99.90;;;;;;5052400;28;20128;-78
2023/10/04 03:13:28;;;;;;;14.10;2.65;;;11.60;99.90;;;;;;5051990;28;20041;-77
2023/10/04 03:15:53;;;;;;;7.93;1.98;;;11.70;99.90;;;;;;5052636;28;20512;-77
2023/10/04 03:18:19;;;;;;;8.98;1.95;;;11.70;99.90;;;;;;5052920;28;20033;-78
2023/10/04 03:21:08;;;;;;;15.95;2.17;;;11.70;99.90;;;;;;5053119;28;20415;-77
2023/10/04 03:23:40;;;;;;;8.95;1.90;;;11.70;99.90;;;;;;5053087;28;20045;-78
2023/10/04 03:26:06;;;;;;;8.73;2.15;;;11.70;99.90;;;;;;5053064;28;20056;-78
2023/10/04 03:28:36;;;;;;;10.27;1.95;;;11.60;99.90;;;;;;5052955;28;20045;-78
2023/10/04 03:31:03;;;;;;;7.95;1.95;;;11.60;99.90;;;;;;5053196;28;20052;-78
2023/10/04 03:33:31;;;;;;;14.75;3.05;;;11.70;99.90;;;;;;5052817;28;20041;-78
2023/10/04 03:35:58;;;;;;;6.53;1.48;;;11.60;99.90;;;;;;5052784;28;20053;-78
2023/10/04 03:38:25;;;;;;;12.05;2.15;;;11.60;99.90;;;;;;5052350;28;20041;-78
2023/10/04 03:40:55;;;;;;;14.45;2.45;;;11.60;99.90;;;;;;5052585;28;20087;-78
2023/10/04 03:43:20;;;;;;;11.90;2.83;;;11.60;99.90;;;;;;5035960;28;20043;-78
2023/10/04 03:45:46;;;;;;;14.85;2.63;;;11.70;99.90;;;;;;5035925;28;20037;-77
2023/10/04 03:48:23;;;;;;;10.57;2.47;;;11.70;99.90;;;;;;5052445;28;20405;-78
2023/10/04 03:50:50;;;;;;;12.45;2.25;;;11.80;99.90;;;;;;5052176;28;20081;-78
2023/10/04 03:53:17;;;;;;;10.35;2.40;;;11.80;99.90;;;;;;5051524;28;20033;-78
2023/10/04 03:55:43;;;;;;;9.35;2.20;;;11.80;99.90;;;;;;5051987;28;20438;-77
2023/10/04 03:58:12;;;;;;;12.63;2.38;;;11.80;99.90;;;;;;5052439;28;20033;-78
2023/10/04 04:00:39;;;;;;;9.77;2.17;;;11.80;99.90;;;;;;5052110;28;20488;-77
2023/10/04 04:03:06;;;;;;;9.95;2.10;;;11.80;99.90;;;;;;5051205;28;20079;-78
2023/10/04 04:05:38;;;;;;;11.80;2.72;;;11.80;99.90;;;;;;5052181;28;20060;-78
2023/10/04 04:08:04;;;;;;;11.70;2.53;;;11.80;99.90;;;;;;5052069;28;20052;-78
2023/10/04 04:10:31;;;;;;;8.40;2.40;;;11.80;99.90;;;;;;5035825;28;20396;-78
2023/10/04 04:12:59;;;;;;;10.80;1.92;;;11.80;99.90;;;;;;5052056;28;20040;-78
2023/10/04 04:15:25;;;;;;;13.35;2.58;;;11.80;99.90;;;;;;5051942;28;20048;-78
2023/10/04 04:17:51;;;;;;;10.20;2.08;;;11.70;99.90;;;;;;5035330;28;20037;-78
2023/10/04 04:20:18;;;;;;;11.23;2.33;;;11.70;99.90;;;;;;5051661;28;20420;-78
2023/10/04 04:22:51;;;;;;;7.38;2.10;;;11.70;99.90;;;;;;5052143;28;20374;-78
2023/10/04 04:25:23;;;;;;;11.10;2.63;;;11.70;99.90;;;;;;5035373;28;20029;-78
2023/10/04 04:27:51;;;;;;;8.47;1.87;;;11.70;99.90;;;;;;5052191;28;20389;-78
2023/10/04 04:30:23;;;;;;;9.00;2.20;;;11.70;99.90;;;;;;5051492;28;20106;-78
2023/10/04 04:32:53;;;;;;;10.23;2.10;;;11.70;99.90;;;;;;5052156;28;20131;-78
2023/10/04 04:38:13;;;;;;;9.88;2.15;;;11.70;99.90;;;;;;5051479;28;20420;-78
2023/10/04 04:40:44;;;;;;;9.52;2.00;;;11.70;99.90;;;;;;5051796;28;20259;-77
2023/10/04 04:45:51;;;;;;;7.13;1.90;;;11.70;99.90;;;;;;5051643;28;20060;-78
2023/10/04 04:48:23;;;;;;;10.52;2.45;;;11.70;99.90;;;;;;5051525;28;20099;-78
2023/10/04 04:50:54;;;;;;;8.10;1.98;;;11.70;99.90;;;;;;5051302;28;20504;-78
2023/10/04 04:53:27;;;;;;;11.10;2.20;;;11.70;99.90;;;;;;5034691;28;20033;-78
2023/10/04 04:55:54;;;;;;;14.43;2.47;;;11.70;99.90;;;;;;5051399;28;20087;-78
2023/10/04 04:58:23;;;;;;;7.95;2.30;;;11.70;99.90;;;;;;5051051;28;20037;-78
2023/10/04 05:00:50;;;;;;;9.25;2.50;;;11.70;99.90;;;;;;5051170;28;20037;-78
2023/10/04 05:03:18;;;;;;;10.55;2.53;;;11.70;99.90;;;;;;5051088;28;20041;-78
2023/10/04 05:05:49;;;;;;;13.93;2.75;;;11.70;99.90;;;;;;5050716;28;20140;-78
2023/10/04 05:08:15;;;;;;;9.70;2.42;;;11.70;99.90;;;;;;5050679;28;20037;-78
2023/10/04 05:10:40;;;;;;;8.38;1.77;;;11.60;99.90;;;;;;5050972;28;20577;-77
2023/10/04 05:13:13;;;;;;;11.95;2.03;;;11.60;99.90;;;;;;5050849;28;20068;-78
2023/10/04 05:15:42;;;;;;;8.10;2.05;;;11.60;99.90;;;;;;5050872;28;20060;-78
2023/10/04 05:18:11;;;;;;;8.70;2.58;;;11.70;99.90;;;;;;5050397;28;20090;-78
2023/10/04 05:20:38;;;;;;;9.40;2.28;;;11.60;99.90;;;;;;5050871;28;20037;-78
2023/10/04 05:23:04;;;;;;;10.77;2.45;;;11.60;99.90;;;;;;5034105;28;20052;-77
2023/10/04 05:25:30;;;;;;;8.13;2.45;;;11.60;99.90;;;;;;5050721;28;20072;-78
2023/10/04 05:28:06;;;;;;;8.55;2.17;;;11.60;99.90;;;;;;5033971;28;20064;-78
2023/10/04 05:30:33;;;;;;;8.90;2.28;;;11.60;99.90;;;;;;5050570;28;20107;-78
2023/10/04 05:32:58;;;;;;;9.57;2.10;;;11.60;99.90;;;;;;5050543;28;20037;-78
2023/10/04 05:35:26;;;;;;;8.90;2.00;;;11.60;99.90;;;;;;5050501;28;20041;-78
2023/10/04 05:37:51;;;;;;;10.38;2.47;;;11.60;99.90;;;;;;5050780;28;20148;-78
2023/10/04 05:40:23;;;;;;;10.85;2.28;;;11.60;99.90;;;;;;5050326;28;20076;-78
2023/10/04 05:42:49;;;;;;;8.27;2.40;;;11.60;99.90;;;;;;5050864;28;20430;-78
2023/10/04 05:45:16;;;;;;;10.90;2.40;;;11.60;99.90;;;;;;5034159;28;20397;-78
2023/10/04 05:47:43;;;;;;;13.43;3.25;;;11.60;99.90;;;;;;5050302;28;20040;-77
2023/10/04 05:50:10;;;;;;;9.95;2.50;;;11.60;99.90;;;;;;5049961;28;20064;-77
2023/10/04 05:52:39;;;;;;;7.93;2.25;;;11.60;99.90;;;;;;5050352;28;20044;-78
2023/10/04 05:55:08;;;;;;;8.52;2.20;;;11.60;99.90;;;;;;5050535;28;20111;-78
2023/10/04 05:57:35;;;;;;;10.45;2.10;;;11.60;99.90;;;;;;5033693;28;20037;-78
2023/10/04 06:00:26;;;;;;;6.60;2.22;;;11.50;99.90;;;;;;5049865;28;20047;-78
2023/10/04 06:02:56;;;;;;;9.88;2.70;;;11.60;99.90;;;;;;5050003;28;20032;-78
2023/10/04 06:05:23;;;;;;;13.57;3.00;;;11.60;99.90;;;;;;5050214;28;20049;-78
2023/10/04 06:07:50;;;;;;;9.85;2.45;;;11.60;99.90;;;;;;5049917;28;20082;-78
2023/10/04 06:10:16;;;;;;;10.15;2.45;;;11.60;99.90;;;;;;5049711;28;20036;-78
2023/10/04 06:12:43;;;;;;;12.43;2.80;;;11.60;99.90;;;;;;5049872;28;20072;-78
2023/10/04 06:15:14;;;;;;;9.63;2.50;;;11.60;99.90;;;;;;5050021;28;20119;-78
2023/10/04 06:17:50;;;;;;;13.02;3.00;;;11.60;99.90;;;;;;5049751;28;20570;-78
2023/10/04 06:22:54;;;;;;;10.10;2.80;;;11.70;99.90;;;;;;5050179;28;20045;-77
2023/10/04 06:25:21;;;;;;;12.90;2.95;;;11.70;99.90;;;;;;5049766;28;20045;-77
2023/10/04 06:27:51;;;;;;;12.50;2.88;;;11.70;99.90;;;;;;5049734;28;20095;-78
2023/10/04 06:30:27;;;;;;;12.93;2.88;;;11.80;99.90;;;;;;5049555;28;20045;-77
2023/10/04 06:32:55;;;;;;;13.52;2.63;;;11.80;99.90;;;;;;5033515;28;20098;-78
2023/10/04 06:35:24;;;;;;;12.40;3.38;;;11.90;99.90;;;;;;5050012;28;20474;-78
2023/10/04 06:38:04;;;;;;;12.43;2.67;;;11.90;99.90;;;;;;5049440;28;20049;-78
2023/10/04 06:40:33;;;;;;;12.45;3.17;;;11.90;99.90;;;;;;5050157;28;20086;-78
2023/10/04 06:43:01;;;;;;;10.80;2.83;;;12.00;99.90;;;;;;5056802;28;20095;-79
2023/10/04 06:45:27;;;;;;;12.40;2.85;;;12.00;99.90;;;;;;5054051;28;20094;-77
2023/10/04 06:47:55;;;;;;;14.85;3.15;;;12.10;99.90;;;;;;5050677;28;20131;-77
2023/10/04 06:50:23;;;;;;;13.25;3.17;;;12.10;99.90;;;;;;5049365;28;20076;-77
2023/10/04 06:52:51;;;;;;;11.43;3.38;;;12.20;99.90;;;;;;5049479;28;20049;-77
2023/10/04 06:55:18;;;;;;;9.68;3.00;;;12.20;99.90;;;;;;5049811;28;20049;-77
2023/10/04 06:57:45;;;;;;;10.10;3.15;;;12.30;99.90;;;;;;5049443;28;20072;-77
2023/10/04 07:00:18;;;;;;;9.77;2.67;;;12.30;99.90;;;;;;5049174;28;20044;-77
2023/10/04 07:02:47;;;;;;;10.70;2.72;;;12.30;99.90;;;;;;5032891;28;20112;-77
2023/10/04 07:05:16;;;;;;;11.18;2.92;;;12.40;99.90;;;;;;5049301;28;20561;-77
2023/10/04 07:07:43;;;;;;;9.90;3.30;;;12.50;99.90;;;;;;5049600;28;20462;-78
2023/10/04 07:10:13;;;;;;;10.68;2.85;;;12.50;99.90;;;;;;5049219;28;20175;-77
2023/10/04 07:12:39;;;;;;;12.30;3.00;;;12.60;99.90;;;;;;5049465;28;20049;-77
2023/10/04 07:15:06;;;;;;;9.52;3.13;;;12.70;99.90;;;;;;5049267;28;20051;-77
2023/10/04 07:17:32;;;;;;;12.85;2.78;;;12.80;99.90;;;;;;5048425;28;20044;-77
2023/10/04 07:19:58;;;;;;;11.98;3.15;;;12.90;99.90;;;;;;5047942;28;20492;-77
2023/10/04 07:22:29;;;;;;;13.23;3.30;;;13.00;99.90;;;;;;5049791;28;20427;-77
2023/10/04 07:24:57;;;;;;;10.02;3.35;;;13.10;99.90;;;;;;5049377;28;20095;-77
2023/10/04 07:27:23;;;;;;;11.10;3.05;;;13.20;99.90;;;;;;5049483;28;20136;-77
2023/10/04 07:29:48;;;;;;;11.75;3.28;;;13.30;99.90;;;;;;5051830;28;20081;-78
2023/10/04 07:32:14;;;;;;;14.85;3.47;;;13.50;99.90;;;;;;5053109;28;20041;-76
2023/10/04 07:34:39;;;;;;;9.40;3.58;;;13.50;99.90;;;;;;5053021;28;20044;-77
2023/10/04 07:37:05;;;;;;;11.05;3.60;;;13.60;99.90;;;;;;5052784;28;20044;-78
2023/10/04 07:39:32;;;;;;;13.32;3.50;;;13.70;99.90;;;;;;5052531;28;20033;-77
2023/10/04 07:41:57;;;;;;;8.80;3.42;;;13.90;99.90;;;;;;5053074;28;20167;-77
2023/10/04 07:44:25;;;;;;;12.60;3.65;;;13.90;99.90;;;;;;5057889;28;20345;-79
2023/10/04 07:46:50;;;;;;;14.88;3.40;;;14.10;99.90;;;;;;5053540;28;20047;-77
2023/10/04 07:49:16;;;;;;;14.80;3.72;;;14.20;99.90;;;;;;5053431;28;20124;-77
2023/10/04 07:51:42;;;;;;;12.90;3.90;;;14.30;99.90;;;;;;5052606;28;20045;-78
2023/10/04 07:54:08;;;;;;;16.13;3.58;;;14.50;99.90;;;;;;5052625;28;20568;-77
2023/10/04 07:56:34;;;;;;;13.63;3.53;;;14.50;99.90;;;;;;5052644;28;20045;-77
2023/10/04 07:59:01;;;;;;;9.38;3.80;;;14.60;99.90;;;;;;5052130;28;20115;-77
2023/10/04 08:01:27;;;;;;;11.90;3.40;;;14.70;99.90;;;;;;5052677;28;20049;-78
2023/10/04 08:03:52;;;;;;;12.65;3.33;;;14.80;99.90;;;;;;5052372;28;20037;-77
2023/10/04 08:06:18;;;;;;;13.75;4.60;;;14.80;99.90;;;;;;5052190;28;20082;-78
2023/10/04 08:08:45;;;;;;;14.32;3.90;;;14.90;99.90;;;;;;5051865;28;20462;-77
2023/10/04 08:11:11;;;;;;;11.45;3.55;;;15.00;99.90;;;;;;5052055;28;20045;-78
2023/10/04 08:13:40;;;;;;;14.73;3.80;;;15.00;99.90;;;;;;5052225;28;20076;-77
2023/10/04 08:16:06;;;;;;;11.65;4.05;;;15.00;99.90;;;;;;5051827;28;20048;-77
2023/10/04 08:18:31;;;;;;;11.77;3.65;;;15.00;99.90;;;;;;5050244;28;20049;-77
2023/10/04 08:21:05;;;;;;;13.57;4.40;;;15.00;99.90;;;;;;5051107;28;20049;-77
2023/10/04 08:23:32;;;;;;;11.50;3.25;;;15.10;99.90;;;;;;5052042;28;20550;-78
2023/10/04 08:25:58;;;;;;;13.25;3.60;;;15.10;99.90;;;;;;5051956;28;20052;-78
2023/10/04 08:28:23;;;;;;;15.00;4.18;;;15.20;99.90;;;;;;5051837;28;20037;-78
2023/10/04 08:30:51;;;;;;;12.68;3.88;;;15.30;99.90;;;;;;5051825;28;20044;-77
2023/10/04 08:33:21;;;;;;;14.10;3.80;;;15.40;99.90;;;;;;5051878;28;20040;-77
2023/10/04 08:35:47;;;;;;;11.23;3.60;;;15.50;99.90;;;;;;5051836;28;20037;-77
2023/10/04 08:38:12;;;;;;;13.02;3.35;;;15.50;99.90;;;;;;5034981;28;20403;-77
2023/10/04 08:40:38;;;;;;;13.38;3.70;;;15.40;99.90;;;;;;5051021;28;20037;-77
2023/10/04 08:43:05;;;;;;;12.88;4.03;;;15.40;99.90;;;;;;5051434;28;20403;-77
2023/10/04 08:45:33;;;;;;;12.88;3.53;;;15.50;99.90;;;;;;5049914;28;20565;-77
2023/10/04 08:47:59;;;;;;;10.27;3.47;;;15.50;99.90;;;;;;5050545;28;20056;-77
2023/10/04 08:50:40;;;;;;;9.27;3.17;;;15.60;99.90;;;;;;5051566;28;20038;-77
2023/10/04 08:53:33;;;;;;;11.48;3.85;;;15.60;99.90;;;;;;5051474;28;20496;-77
2023/10/04 08:56:05;;;;;;;8.95;3.03;;;15.60;99.90;;;;;;5051561;28;20091;-77
2023/10/04 08:58:32;;;;;;;12.05;3.97;;;15.60;99.90;;;;;;5051383;28;20033;-77
2023/10/04 09:00:58;;;;;;;12.30;3.88;;;15.60;99.90;;;;;;5051396;28;20416;-77
2023/10/04 09:03:24;;;;;;;16.92;4.50;;;15.60;99.90;;;;;;5051318;28;20067;-77
2023/10/04 09:05:54;;;;;;;13.60;4.10;;;15.60;99.90;;;;;;5051466;28;20082;-77
2023/10/04 09:08:22;;;;;;;12.32;3.80;;;15.60;99.90;;;;;;5050982;28;20033;-77
2023/10/04 09:10:47;;;;;;;13.70;3.58;;;15.80;99.90;;;;;;5051408;28;20045;-77
2023/10/04 09:13:13;;;;;;;14.35;3.92;;;15.90;99.90;;;;;;5051142;28;20045;-77
2023/10/04 09:15:39;;;;;;;13.93;3.97;;;16.00;99.90;;;;;;5051267;28;20044;-78
2023/10/04 09:18:05;;;;;;;10.10;3.47;;;16.10;99.90;;;;;;5049436;28;20041;-78
2023/10/04 09:20:33;;;;;;;12.90;3.90;;;16.10;99.90;;;;;;5050147;28;20037;-77
2023/10/04 09:23:00;;;;;;;12.82;4.15;;;16.10;99.90;;;;;;5051145;28;20081;-78
2023/10/04 09:25:55;;;;;;;12.13;3.60;;;16.00;99.90;;;;;;5051047;28;20044;-77
2023/10/04 09:28:36;;;;;;;12.10;4.30;;;16.00;99.90;;;;;;5049625;28;20053;-78
2023/10/04 09:31:10;;;;;;;11.25;3.53;;;16.10;99.90;;;;;;5051047;28;20107;-77
2023/10/04 09:33:36;;;;;;;14.20;3.75;;;16.30;99.90;;;;;;5050927;28;20225;-77
2023/10/04 09:36:01;;;;;;;9.80;3.38;;;16.40;99.90;;;;;;5050922;28;20207;-79
2023/10/04 09:38:29;;;;;;;14.63;4.07;;;16.50;99.90;;;;;;5050887;28;20119;-77
2023/10/04 09:40:56;;;;;;;13.15;3.70;;;16.50;99.90;;;;;;5050423;28;20075;-77
2023/10/04 09:43:36;;;;;;;13.80;3.67;;;16.60;99.90;;;;;;5033847;28;20072;-78
2023/10/04 09:46:04;;;;;;;11.88;4.03;;;16.60;99.90;;;;;;5050677;28;20048;-77
2023/10/04 09:48:37;;;;;;;12.45;3.53;;;16.60;99.90;;;;;;5050122;28;20045;-77
2023/10/04 09:51:07;;;;;;;11.63;3.77;;;16.80;99.90;;;;;;5050232;28;20086;-77
2023/10/04 09:53:38;;;;;;;13.10;3.78;;;17.00;99.90;;;;;;5050612;28;20120;-77
2023/10/04 09:56:04;;;;;;;14.65;3.95;;;17.20;99.90;;;;;;5050936;28;20045;-78
2023/10/04 09:58:31;;;;;;;11.40;3.70;;;17.20;99.90;;;;;;5050721;28;20511;-79
2023/10/04 10:01:05;;;;;;;10.38;3.70;;;17.20;99.90;;;;;;5053706;28;20055;-78
2023/10/04 10:03:36;;;;;;;9.63;3.70;;;17.30;99.90;;;;;;5050760;28;20041;-77
2023/10/04 10:06:04;;;;;;;11.65;3.88;;;17.40;99.90;;;;;;5050412;28;20132;-77
2023/10/04 10:08:34;;;;;;;8.70;3.60;;;17.50;99.90;;;;;;5050572;28;20044;-78
2023/10/04 10:11:00;;;;;;;11.82;4.15;;;17.50;99.90;;;;;;5050502;28;20037;-76
2023/10/04 10:13:26;;;;;;;8.60;3.50;;;17.50;99.90;;;;;;5050262;28;20049;-77
2023/10/04 10:15:53;;;;;;;13.93;3.58;;;17.50;99.90;;;;;;5048526;28;20048;-77
2023/10/04 10:18:21;;;;;;;12.10;3.83;;;17.50;99.90;;;;;;5048449;28;20052;-77
2023/10/04 10:20:47;;;;;;;10.98;3.70;;;17.50;99.90;;;;;;5049935;28;20033;-76
2023/10/04 10:23:13;;;;;;;12.60;4.07;;;17.50;99.90;;;;;;5050105;28;20051;-77
2023/10/04 10:25:40;;;;;;;9.55;3.35;;;17.50;99.90;;;;;;5049885;28;20037;-77
2023/10/04 10:28:20;;;;;;;14.00;3.65;;;17.40;99.90;;;;;;5049707;28;20044;-77
2023/10/04 10:30:45;;;;;;;11.98;3.65;;;17.40;99.90;;;;;;5050045;28;20043;-78
2023/10/04 10:33:12;;;;;;;11.57;3.60;;;17.40;99.90;;;;;;5050181;28;20495;-78
2023/10/04 10:35:52;;;;;;;11.52;3.60;;;17.40;99.90;;;;;;5049842;28;20140;-77
2023/10/04 10:38:40;;;;;;;10.05;3.63;;;17.40;99.90;;;;;;5049688;28;20099;-77
2023/10/04 10:41:07;;;;;;;10.90;3.65;;;17.30;99.90;;;;;;5033301;28;20561;-77
2023/10/04 10:43:35;;;;;;;13.13;4.10;;;17.30;99.90;;;;;;5049887;28;20500;-77
2023/10/04 10:46:26;;;;;;;8.00;3.25;;;17.30;99.90;;;;;;5049853;28;20488;-76
2023/10/04 10:48:58;;;;;;;11.13;4.28;;;17.20;99.90;;;;;;5049553;28;20499;-78
2023/10/04 10:51:42;;;;;;;14.20;3.92;;;17.20;99.90;;;;;;5050184;28;20407;-76
2023/10/04 10:54:08;;;;;;;13.65;3.80;;;17.20;99.90;;;;;;5049905;28;20047;-77
2023/10/04 10:56:37;;;;;;;12.05;3.90;;;17.20;99.90;;;;;;5049423;28;20084;-76
2023/10/04 10:59:04;;;;;;;11.70;3.95;;;17.20;99.90;;;;;;5049555;28;20085;-76
2023/10/04 11:01:30;;;;;;;11.23;3.80;;;17.10;99.90;;;;;;5049710;28;20068;-78
2023/10/04 11:03:56;;;;;;;10.15;3.95;;;17.10;99.90;;;;;;5034453;28;20072;-77
2023/10/04 11:06:22;;;;;;;12.98;3.75;;;17.10;99.90;;;;;;5053434;28;20040;-76
2023/10/04 11:08:48;;;;;;;10.60;4.15;;;17.10;99.90;;;;;;5052825;28;20040;-77
2023/10/04 11:11:14;;;;;;;12.10;3.70;;;17.10;99.90;;;;;;5053707;28;20059;-76
2023/10/04 11:13:43;;;;;;;11.18;3.92;;;17.10;99.90;;;;;;5053358;28;20067;-77
2023/10/04 11:16:09;;;;;;;12.50;4.35;;;17.10;99.90;;;;;;5053462;28;20045;-77
2023/10/04 11:18:35;;;;;;;12.23;3.92;;;17.20;99.90;;;;;;5036462;28;20041;-76
2023/10/04 11:21:04;;;;;;;13.73;3.92;;;17.30;99.90;;;;;;5053213;28;20140;-77
2023/10/04 11:23:30;;;;;;;9.35;3.92;;;17.40;99.90;;;;;;5053249;28;20102;-76
2023/10/04 11:25:59;;;;;;;9.23;3.78;;;17.40;99.90;;;;;;5053275;28;20040;-76
2023/10/04 11:28:25;;;;;;;11.75;4.30;;;17.50;99.90;;;;;;5036040;28;20056;-77
2023/10/04 11:30:51;;;;;;;13.00;4.50;;;17.50;99.90;;;;;;5053403;28;20094;-77
2023/10/04 11:33:17;;;;;;;9.57;3.88;;;17.50;99.90;;;;;;5052991;28;20128;-78
2023/10/04 11:35:43;;;;;;;9.15;3.78;;;17.50;99.90;;;;;;5052532;28;20559;-76
2023/10/04 11:38:16;;;;;;;15.13;3.80;;;17.50;99.90;;;;;;5035447;28;20044;-77
2023/10/04 11:40:49;;;;;;;11.68;4.05;;;17.50;99.90;;;;;;5052949;28;20045;-76
2023/10/04 11:43:15;;;;;;;10.25;4.03;;;17.50;99.90;;;;;;5053027;28;20040;-77
2023/10/04 11:45:41;;;;;;;11.48;3.75;;;17.50;99.90;;;;;;5051392;28;20103;-77
2023/10/04 11:48:08;;;;;;;11.95;4.05;;;17.50;99.90;;;;;;5052067;28;20404;-78
2023/10/04 11:50:48;;;;;;;14.13;4.38;;;17.60;99.90;;;;;;5036952;28;20401;-79
2023/10/04 11:53:38;;;;;;;12.70;4.22;;;17.50;99.90;;;;;;5052851;28;20045;-77
2023/10/04 11:56:10;;;;;;;12.73;4.20;;;17.60;99.90;;;;;;5052646;28;20044;-78
2023/10/04 11:58:47;;;;;;;7.40;3.63;;;17.60;99.90;;;;;;5036130;28;20120;-77
2023/10/04 12:01:22;;;;;;;10.70;3.65;;;17.60;99.90;;;;;;5053140;28;20040;-77
2023/10/04 12:03:50;;;;;;;13.13;3.70;;;17.60;99.90;;;;;;5036530;28;20400;-77
2023/10/04 12:06:33;;;;;;;10.68;3.22;;;17.60;99.90;;;;;;5036035;28;20032;-77
2023/10/04 12:08:58;;;;;;;9.53;3.50;;;17.70;99.90;;;;;;5052549;28;20091;-76
2023/10/04 12:11:33;;;;;;;10.20;3.40;;;17.60;99.90;;;;;;5052402;28;20044;-77
2023/10/04 12:13:59;;;;;;;7.85;3.13;;;17.60;99.90;;;;;;5052327;28;20045;-77
2023/10/04 12:16:25;;;;;;;12.15;3.50;;;17.60;99.90;;;;;;5050870;28;20526;-77
2023/10/04 12:18:51;;;;;;;10.18;3.58;;;17.70;99.90;;;;;;5051776;28;20447;-76
2023/10/04 12:21:17;;;;;;;11.10;3.10;;;17.70;99.90;;;;;;5051348;28;20044;-77
2023/10/04 12:23:43;;;;;;;9.38;2.67;;;17.70;99.90;;;;;;5051790;28;20500;-77
2023/10/04 12:26:09;;;;;;;8.75;3.67;;;17.80;99.90;;;;;;5052622;28;20120;-77
2023/10/04 12:28:36;;;;;;;9.20;3.08;;;17.70;99.90;;;;;;5051897;28;20041;-78
2023/10/04 12:31:03;;;;;;;7.25;2.90;;;17.80;99.90;;;;;;5052417;28;20068;-77
2023/10/04 12:33:35;;;;;;;9.35;3.15;;;17.80;99.90;;;;;;5052299;28;20041;-77
2023/10/04 12:36:02;;;;;;;11.10;3.25;;;17.90;99.90;;;;;;5035618;28;20037;-76
2023/10/04 12:38:27;;;;;;;9.73;3.40;;;17.90;99.90;;;;;;5051948;28;20430;-76
2023/10/04 12:40:53;;;;;;;15.55;3.60;;;18.00;99.90;;;;;;5051878;28;20086;-77
2023/10/04 12:43:18;;;;;;;7.50;2.40;;;18.20;99.90;;;;;;5051808;28;20048;-77
2023/10/04 12:45:52;;;;;;;10.05;2.78;;;18.30;99.90;;;;;;5052692;28;20051;-78
2023/10/04 12:48:18;;;;;;;;;;;18.30;99.90;;;;;;5052352;28;20484;-78
2023/10/04 12:50:45;;;;;;;10.00;2.75;;;18.30;99.90;;;;;;5051829;28;19995;-77
2023/10/04 12:53:14;;;;;;;8.80;2.75;;;18.30;99.90;;;;;;5051514;28;20048;-77
2023/10/04 12:55:44;;;;;;;9.25;2.83;;;18.40;99.90;;;;;;5051297;28;20052;-77